Liberty of The Seas — C6VQ8 — position and weather

sailwx.info

Track history (hours):
 
Tides and Currents Weather Stations Pressure Air Temp Water Temp Dewpoint Dewpoint Depression Visibility Wind Speed Wind Dir Waves Ship Positions

Liberty of The Seas

Last reported at 2017-Jun-24 04:00 UTC. Time now 2017-Jun-25 05:15 UTC.
Position N 23°12' W 086°42'.

Type: Passenger vessel. MMSI: 309436000.

Wind from 090 at 21 knots

Barometer 1015.0 mb
Air temperature 27.0 ° C
Visibility: greater than 10.8 NM
Dewpoint 24.1 ° C
Water temperature 27.0 ° C

Date/timePositionNaut miles runAvg speedWind from/ knotsBaromVisibWave heightAir tempDewpointWater temp
2017-Jun-24 04:00N 23°12' W 086°42'45919.1 090 / 211015.010.8 27.024.127.0
2017-Jun-23 04:00N 19°12' W 079°42'   080 / 101015.010.8 26.424.4
2017-Jun-20 21:49N 20°36' W 086°55'721.0
2017-Jun-20 21:30N 20°31' W 086°59'2 3.4
2017-Jun-20 20:58N 20°29' W 086°59'0 0.0
2017-Jun-20 20:25N 20°29' W 086°59'0 0.0
2017-Jun-20 19:52N 20°29' W 086°59'0 0.0
2017-Jun-20 19:28N 20°29' W 086°59'0 0.0
2017-Jun-20 18:58N 20°29' W 086°59'0 0.0
2017-Jun-20 18:31N 20°29' W 086°59'0 0.0
2017-Jun-20 18:01N 20°29' W 086°59'0 0.0
2017-Jun-20 17:31N 20°29' W 086°59'0 0.0
2017-Jun-20 17:01N 20°29' W 086°59'0 0.0
2017-Jun-20 16:31N 20°29' W 086°59'0 0.0
2017-Jun-20 16:00N 20°29' W 086°59'0 0.0
2017-Jun-20 15:30N 20°29' W 086°59'0 0.0
2017-Jun-20 15:01N 20°29' W 086°59'0 0.0
2017-Jun-20 14:01N 20°29' W 086°59'0 0.0
2017-Jun-20 13:31N 20°29' W 086°59'0 0.0
2017-Jun-20 13:01N 20°29' W 086°59'0 0.0
2017-Jun-20 12:31N 20°29' W 086°59'0 0.3
2017-Jun-20 12:01N 20°29' W 086°59'2 3.5
2017-Jun-20 11:31N 20°31' W 086°58'713.8
2017-Jun-20 11:00N 20°37' W 086°55'10216.9
2017-Jun-20 05:00N 22°18' W 087°06'59114.1 170 / 301007.010.8 27.0
2017-Jun-18 10:58N 29°19' W 094°47'1 2.7
2017-Jun-18 10:25N 29°20' W 094°46'2410.0
2017-Jun-18 08:00N 29°06' W 094°24'33520.9 200 / 251009.010.8 27.025.7
2017-Jun-17 16:00N 25°18' W 089°48'32418.7 080 / 71013.010.8 28.025.2
2017-Jun-16 22:37N 20°35' W 086°57'221.7
2017-Jun-16 22:30N 20°32' W 086°58'3 5.5
2017-Jun-16 21:53N 20°29' W 086°59'0 0.0
2017-Jun-16 21:29N 20°29' W 086°59'0 0.0
2017-Jun-16 20:56N 20°29' W 086°59'0 0.0
2017-Jun-16 20:26N 20°29' W 086°59'0 0.0
2017-Jun-16 19:59N 20°29' W 086°59'0 0.0
2017-Jun-16 19:26N 20°29' W 086°59'0 0.0
2017-Jun-16 18:59N 20°29' W 086°59'0 0.0
2017-Jun-16 18:29N 20°29' W 086°59'0 0.0
2017-Jun-16 17:59N 20°29' W 086°59'0 0.0
2017-Jun-16 17:29N 20°29' W 086°59'0 0.0
2017-Jun-16 16:59N 20°29' W 086°59'0 0.0
2017-Jun-16 16:29N 20°29' W 086°59'0 0.0
2017-Jun-16 15:59N 20°29' W 086°59'0 0.0
2017-Jun-16 15:29N 20°29' W 086°59'0 0.0
2017-Jun-16 14:59N 20°29' W 086°59'0 0.0
2017-Jun-16 14:29N 20°29' W 086°59'0 0.0
2017-Jun-16 13:29N 20°29' W 086°59'0 0.0
2017-Jun-16 12:59N 20°29' W 086°59'0 0.0
2017-Jun-16 12:29N 20°29' W 086°59'0 0.2
2017-Jun-16 12:00N 20°29' W 086°59'1 2.7
2017-Jun-16 11:30N 20°29' W 086°60'3 6.1
2017-Jun-16 11:00N 20°27' W 087°02'4 8.3
2017-Jun-16 10:30N 20°23' W 087°04'24 9.4
2017-Jun-16 08:00N 20°00' W 087°00'50121.8 120 / 251014.010.8 26.4
2017-Jun-15 09:00N 18°06' W 078°24'46215.9 120 / 251014.0 5.4 26.5
2017-Jun-14 04:00N 18°24' W 086°30'   110 / 271013.010.8 27.525.4
Track history (hours):
 
Tides and Currents Weather Stations Pressure Air Temp Water Temp Dewpoint Dewpoint Depression Visibility Wind Speed Wind Dir Waves Ship Positions

Liberty of The Seas

Last reported at 2017-Jun-24 04:00 UTC. Time now 2017-Jun-25 05:15 UTC.
Position N 23°12' W 086°42'.

Type: Passenger vessel. MMSI: 309436000.

Wind from 090 at 21 knots

Barometer 1015.0 mb
Air temperature 27.0 ° C
Visibility: greater than 10.8 NM
Dewpoint 24.1 ° C
Water temperature 27.0 ° C

Date/timePositionNaut miles runAvg speedWind from/ knotsBaromVisibWave heightAir tempDewpointWater temp
2017-Jun-24 04:00N 23°12' W 086°42'45919.1 090 / 211015.010.8 27.024.127.0
2017-Jun-23 04:00N 19°12' W 079°42'   080 / 101015.010.8 26.424.4
2017-Jun-20 21:49N 20°36' W 086°55'721.0
2017-Jun-20 21:30N 20°31' W 086°59'2 3.4
2017-Jun-20 20:58N 20°29' W 086°59'0 0.0
2017-Jun-20 20:25N 20°29' W 086°59'0 0.0
2017-Jun-20 19:52N 20°29' W 086°59'0 0.0
2017-Jun-20 19:28N 20°29' W 086°59'0 0.0
2017-Jun-20 18:58N 20°29' W 086°59'0 0.0
2017-Jun-20 18:31N 20°29' W 086°59'0 0.0
2017-Jun-20 18:01N 20°29' W 086°59'0 0.0
2017-Jun-20 17:31N 20°29' W 086°59'0 0.0
2017-Jun-20 17:01N 20°29' W 086°59'0 0.0
2017-Jun-20 16:31N 20°29' W 086°59'0 0.0
2017-Jun-20 16:00N 20°29' W 086°59'0 0.0
2017-Jun-20 15:30N 20°29' W 086°59'0 0.0
2017-Jun-20 15:01N 20°29' W 086°59'0 0.0
2017-Jun-20 14:01N 20°29' W 086°59'0 0.0
2017-Jun-20 13:31N 20°29' W 086°59'0 0.0
2017-Jun-20 13:01N 20°29' W 086°59'0 0.0
2017-Jun-20 12:31N 20°29' W 086°59'0 0.3
2017-Jun-20 12:01N 20°29' W 086°59'2 3.5
2017-Jun-20 11:31N 20°31' W 086°58'713.8
2017-Jun-20 11:00N 20°37' W 086°55'10216.9
2017-Jun-20 05:00N 22°18' W 087°06'59114.1 170 / 301007.010.8 27.0
2017-Jun-18 10:58N 29°19' W 094°47'1 2.7
2017-Jun-18 10:25N 29°20' W 094°46'2410.0
2017-Jun-18 08:00N 29°06' W 094°24'33520.9 200 / 251009.010.8 27.025.7
2017-Jun-17 16:00N 25°18' W 089°48'32418.7 080 / 71013.010.8 28.025.2
2017-Jun-16 22:37N 20°35' W 086°57'221.7
2017-Jun-16 22:30N 20°32' W 086°58'3 5.5
2017-Jun-16 21:53N 20°29' W 086°59'0 0.0
2017-Jun-16 21:29N 20°29' W 086°59'0 0.0
2017-Jun-16 20:56N 20°29' W 086°59'0 0.0
2017-Jun-16 20:26N 20°29' W 086°59'0 0.0
2017-Jun-16 19:59N 20°29' W 086°59'0 0.0
2017-Jun-16 19:26N 20°29' W 086°59'0 0.0
2017-Jun-16 18:59N 20°29' W 086°59'0 0.0
2017-Jun-16 18:29N 20°29' W 086°59'0 0.0
2017-Jun-16 17:59N 20°29' W 086°59'0 0.0
2017-Jun-16 17:29N 20°29' W 086°59'0 0.0
2017-Jun-16 16:59N 20°29' W 086°59'0 0.0
2017-Jun-16 16:29N 20°29' W 086°59'0 0.0
2017-Jun-16 15:59N 20°29' W 086°59'0 0.0
2017-Jun-16 15:29N 20°29' W 086°59'0 0.0
2017-Jun-16 14:59N 20°29' W 086°59'0 0.0
2017-Jun-16 14:29N 20°29' W 086°59'0 0.0
2017-Jun-16 13:29N 20°29' W 086°59'0 0.0
2017-Jun-16 12:59N 20°29' W 086°59'0 0.0
2017-Jun-16 12:29N 20°29' W 086°59'0 0.2
2017-Jun-16 12:00N 20°29' W 086°59'1 2.7
2017-Jun-16 11:30N 20°29' W 086°60'3 6.1
2017-Jun-16 11:00N 20°27' W 087°02'4 8.3
2017-Jun-16 10:30N 20°23' W 087°04'24 9.4
2017-Jun-16 08:00N 20°00' W 087°00'50121.8 120 / 251014.010.8 26.4
2017-Jun-15 09:00N 18°06' W 078°24'46215.9 120 / 251014.0 5.4 26.5
2017-Jun-14 04:00N 18°24' W 086°30'   110 / 271013.010.8 27.525.4

Dump ship's entire track history